sensor_id;sensor_type;location;lat;lon;timestamp;P1;durP1;ratioP1;P2;durP2;ratioP2
17424;SDS011;8830;50.978;5.058;2023-03-02T00:00:52;8.20;;;7.13;;
17424;SDS011;8830;50.978;5.058;2023-03-02T00:03:23;10.10;;;7.30;;
17424;SDS011;8830;50.978;5.058;2023-03-02T00:05:53;9.83;;;7.17;;
17424;SDS011;8830;50.978;5.058;2023-03-02T00:08:21;10.73;;;6.90;;
17424;SDS011;8830;50.978;5.058;2023-03-02T00:10:48;7.77;;;7.07;;
17424;SDS011;8830;50.978;5.058;2023-03-02T00:13:15;8.40;;;7.50;;
17424;SDS011;8830;50.978;5.058;2023-03-02T00:15:43;10.23;;;7.20;;
17424;SDS011;8830;50.978;5.058;2023-03-02T00:18:10;8.23;;;6.60;;
17424;SDS011;8830;50.978;5.058;2023-03-02T00:20:39;9.13;;;6.90;;
17424;SDS011;8830;50.978;5.058;2023-03-02T00:23:06;10.40;;;7.23;;
17424;SDS011;8830;50.978;5.058;2023-03-02T00:25:34;11.83;;;6.87;;
17424;SDS011;8830;50.978;5.058;2023-03-02T00:28:01;8.07;;;7.23;;
17424;SDS011;8830;50.978;5.058;2023-03-02T00:30:29;7.47;;;6.07;;
17424;SDS011;8830;50.978;5.058;2023-03-02T00:32:56;8.43;;;7.17;;
17424;SDS011;8830;50.978;5.058;2023-03-02T00:35:23;9.43;;;6.67;;
17424;SDS011;8830;50.978;5.058;2023-03-02T00:37:52;9.80;;;7.27;;
17424;SDS011;8830;50.978;5.058;2023-03-02T00:40:19;7.53;;;6.77;;
17424;SDS011;8830;50.978;5.058;2023-03-02T00:42:47;8.40;;;6.83;;
17424;SDS011;8830;50.978;5.058;2023-03-02T00:45:14;8.63;;;7.10;;
17424;SDS011;8830;50.978;5.058;2023-03-02T00:47:41;9.93;;;7.03;;
17424;SDS011;8830;50.978;5.058;2023-03-02T00:50:10;8.80;;;6.57;;
17424;SDS011;8830;50.978;5.058;2023-03-02T00:52:37;9.00;;;7.47;;
17424;SDS011;8830;50.978;5.058;2023-03-02T00:55:06;8.20;;;6.47;;
17424;SDS011;8830;50.978;5.058;2023-03-02T00:57:34;9.47;;;7.73;;
17424;SDS011;8830;50.978;5.058;2023-03-02T01:00:01;9.50;;;7.03;;
17424;SDS011;8830;50.978;5.058;2023-03-02T01:02:30;9.53;;;7.53;;
17424;SDS011;8830;50.978;5.058;2023-03-02T01:04:58;9.07;;;6.80;;
17424;SDS011;8830;50.978;5.058;2023-03-02T01:07:25;7.70;;;6.70;;
17424;SDS011;8830;50.978;5.058;2023-03-02T01:09:52;8.57;;;6.30;;
17424;SDS011;8830;50.978;5.058;2023-03-02T01:12:21;9.97;;;6.73;;
17424;SDS011;8830;50.978;5.058;2023-03-02T01:14:48;7.63;;;6.57;;
17424;SDS011;8830;50.978;5.058;2023-03-02T01:17:15;7.50;;;6.40;;
17424;SDS011;8830;50.978;5.058;2023-03-02T01:19:43;8.87;;;7.20;;
17424;SDS011;8830;50.978;5.058;2023-03-02T01:22:10;7.50;;;6.23;;
17424;SDS011;8830;50.978;5.058;2023-03-02T01:24:37;10.20;;;6.23;;
17424;SDS011;8830;50.978;5.058;2023-03-02T01:27:04;8.10;;;6.40;;
17424;SDS011;8830;50.978;5.058;2023-03-02T01:29:32;7.40;;;5.80;;
17424;SDS011;8830;50.978;5.058;2023-03-02T01:31:59;9.07;;;6.93;;
17424;SDS011;8830;50.978;5.058;2023-03-02T01:34:27;8.67;;;6.50;;
17424;SDS011;8830;50.978;5.058;2023-03-02T01:36:54;7.00;;;6.30;;
17424;SDS011;8830;50.978;5.058;2023-03-02T01:39:24;13.10;;;6.83;;
17424;SDS011;8830;50.978;5.058;2023-03-02T01:41:51;8.07;;;5.97;;
17424;SDS011;8830;50.978;5.058;2023-03-02T01:44:36;6.73;;;6.13;;
17424;SDS011;8830;50.978;5.058;2023-03-02T01:47:05;10.17;;;6.27;;
17424;SDS011;8830;50.978;5.058;2023-03-02T01:49:38;7.90;;;5.90;;
17424;SDS011;8830;50.978;5.058;2023-03-02T01:52:07;8.13;;;6.00;;
17424;SDS011;8830;50.978;5.058;2023-03-02T01:54:34;8.13;;;6.37;;
17424;SDS011;8830;50.978;5.058;2023-03-02T01:57:03;7.87;;;6.77;;
17424;SDS011;8830;50.978;5.058;2023-03-02T01:59:32;6.63;;;5.97;;
17424;SDS011;8830;50.978;5.058;2023-03-02T02:02:06;8.50;;;6.37;;
17424;SDS011;8830;50.978;5.058;2023-03-02T02:04:37;7.17;;;6.27;;
17424;SDS011;8830;50.978;5.058;2023-03-02T02:07:07;10.60;;;6.20;;
17424;SDS011;8830;50.978;5.058;2023-03-02T02:09:36;8.37;;;6.30;;
17424;SDS011;8830;50.978;5.058;2023-03-02T02:12:05;10.23;;;6.87;;
17424;SDS011;8830;50.978;5.058;2023-03-02T02:14:32;9.40;;;6.50;;
17424;SDS011;8830;50.978;5.058;2023-03-02T02:17:00;7.73;;;6.83;;
17424;SDS011;8830;50.978;5.058;2023-03-02T02:19:34;6.23;;;5.60;;
17424;SDS011;8830;50.978;5.058;2023-03-02T02:22:04;6.27;;;5.63;;
17424;SDS011;8830;50.978;5.058;2023-03-02T02:24:32;7.10;;;6.40;;
17424;SDS011;8830;50.978;5.058;2023-03-02T02:27:05;7.67;;;6.87;;
17424;SDS011;8830;50.978;5.058;2023-03-02T02:29:33;10.63;;;6.70;;
17424;SDS011;8830;50.978;5.058;2023-03-02T02:32:05;6.40;;;5.63;;
17424;SDS011;8830;50.978;5.058;2023-03-02T02:34:38;7.80;;;6.50;;
17424;SDS011;8830;50.978;5.058;2023-03-02T02:37:10;6.03;;;5.43;;
17424;SDS011;8830;50.978;5.058;2023-03-02T02:39:40;6.33;;;5.60;;
17424;SDS011;8830;50.978;5.058;2023-03-02T02:42:11;7.87;;;5.60;;
17424;SDS011;8830;50.978;5.058;2023-03-02T02:44:39;9.73;;;5.90;;
17424;SDS011;8830;50.978;5.058;2023-03-02T02:47:08;7.63;;;5.97;;
17424;SDS011;8830;50.978;5.058;2023-03-02T02:49:40;7.83;;;6.10;;
17424;SDS011;8830;50.978;5.058;2023-03-02T02:52:09;6.50;;;5.90;;
17424;SDS011;8830;50.978;5.058;2023-03-02T02:54:38;10.37;;;6.37;;
17424;SDS011;8830;50.978;5.058;2023-03-02T02:57:06;7.00;;;5.93;;
17424;SDS011;8830;50.978;5.058;2023-03-02T02:59:35;9.23;;;6.73;;
17424;SDS011;8830;50.978;5.058;2023-03-02T03:02:04;7.87;;;6.57;;
17424;SDS011;8830;50.978;5.058;2023-03-02T03:04:31;10.73;;;5.90;;
17424;SDS011;8830;50.978;5.058;2023-03-02T03:07:00;10.97;;;6.67;;
17424;SDS011;8830;50.978;5.058;2023-03-02T03:09:28;8.93;;;6.03;;
17424;SDS011;8830;50.978;5.058;2023-03-02T03:11:55;8.40;;;6.27;;
17424;SDS011;8830;50.978;5.058;2023-03-02T03:14:23;7.20;;;6.00;;
17424;SDS011;8830;50.978;5.058;2023-03-02T03:16:55;8.43;;;6.97;;
17424;SDS011;8830;50.978;5.058;2023-03-02T03:19:23;8.50;;;7.00;;
17424;SDS011;8830;50.978;5.058;2023-03-02T03:21:52;9.33;;;6.57;;
17424;SDS011;8830;50.978;5.058;2023-03-02T03:24:22;6.80;;;6.17;;
17424;SDS011;8830;50.978;5.058;2023-03-02T03:26:49;9.47;;;7.03;;
17424;SDS011;8830;50.978;5.058;2023-03-02T03:29:18;10.37;;;6.77;;
17424;SDS011;8830;50.978;5.058;2023-03-02T03:31:48;7.57;;;6.67;;
17424;SDS011;8830;50.978;5.058;2023-03-02T03:34:17;10.17;;;7.07;;
17424;SDS011;8830;50.978;5.058;2023-03-02T03:36:44;7.80;;;7.10;;
17424;SDS011;8830;50.978;5.058;2023-03-02T03:39:13;8.80;;;7.40;;
17424;SDS011;8830;50.978;5.058;2023-03-02T03:41:40;7.67;;;6.83;;
17424;SDS011;8830;50.978;5.058;2023-03-02T03:44:08;10.27;;;7.30;;
17424;SDS011;8830;50.978;5.058;2023-03-02T03:46:35;15.23;;;7.80;;
17424;SDS011;8830;50.978;5.058;2023-03-02T03:49:03;8.50;;;6.80;;
17424;SDS011;8830;50.978;5.058;2023-03-02T03:51:31;7.50;;;6.40;;
17424;SDS011;8830;50.978;5.058;2023-03-02T03:53:59;8.57;;;5.83;;
17424;SDS011;8830;50.978;5.058;2023-03-02T03:56:26;7.70;;;6.00;;
17424;SDS011;8830;50.978;5.058;2023-03-02T03:58:53;7.17;;;5.30;;
17424;SDS011;8830;50.978;5.058;2023-03-02T04:01:31;12.90;;;6.87;;
17424;SDS011;8830;50.978;5.058;2023-03-02T04:04:02;8.37;;;6.27;;
17424;SDS011;8830;50.978;5.058;2023-03-02T04:06:29;7.57;;;6.27;;
17424;SDS011;8830;50.978;5.058;2023-03-02T04:08:57;9.20;;;6.40;;
17424;SDS011;8830;50.978;5.058;2023-03-02T04:11:28;9.10;;;6.27;;
17424;SDS011;8830;50.978;5.058;2023-03-02T04:13:55;11.43;;;5.93;;
17424;SDS011;8830;50.978;5.058;2023-03-02T04:16:23;7.60;;;6.47;;
17424;SDS011;8830;50.978;5.058;2023-03-02T04:18:50;7.87;;;6.10;;
17424;SDS011;8830;50.978;5.058;2023-03-02T04:21:17;5.90;;;5.40;;
17424;SDS011;8830;50.978;5.058;2023-03-02T04:23:44;8.50;;;6.80;;
17424;SDS011;8830;50.978;5.058;2023-03-02T04:26:14;8.27;;;6.47;;
17424;SDS011;8830;50.978;5.058;2023-03-02T04:28:41;7.30;;;6.57;;
17424;SDS011;8830;50.978;5.058;2023-03-02T04:31:09;7.33;;;6.67;;
17424;SDS011;8830;50.978;5.058;2023-03-02T04:33:38;7.53;;;6.37;;
17424;SDS011;8830;50.978;5.058;2023-03-02T04:36:05;6.93;;;6.23;;
17424;SDS011;8830;50.978;5.058;2023-03-02T04:38:34;9.57;;;7.13;;
17424;SDS011;8830;50.978;5.058;2023-03-02T04:41:00;7.27;;;6.43;;
17424;SDS011;8830;50.978;5.058;2023-03-02T04:43:29;8.97;;;6.60;;
17424;SDS011;8830;50.978;5.058;2023-03-02T04:45:57;9.23;;;6.43;;
17424;SDS011;8830;50.978;5.058;2023-03-02T04:48:24;7.03;;;6.27;;
17424;SDS011;8830;50.978;5.058;2023-03-02T04:50:51;7.90;;;7.10;;
17424;SDS011;8830;50.978;5.058;2023-03-02T04:53:18;7.80;;;7.00;;
17424;SDS011;8830;50.978;5.058;2023-03-02T04:55:45;7.73;;;6.47;;
17424;SDS011;8830;50.978;5.058;2023-03-02T04:58:12;8.70;;;7.13;;
17424;SDS011;8830;50.978;5.058;2023-03-02T05:00:41;8.37;;;6.13;;
17424;SDS011;8830;50.978;5.058;2023-03-02T05:03:08;10.53;;;7.57;;
17424;SDS011;8830;50.978;5.058;2023-03-02T05:05:35;7.17;;;6.47;;
17424;SDS011;8830;50.978;5.058;2023-03-02T05:08:02;10.70;;;7.37;;
17424;SDS011;8830;50.978;5.058;2023-03-02T05:10:29;8.00;;;6.63;;
17424;SDS011;8830;50.978;5.058;2023-03-02T05:12:56;10.03;;;6.67;;
17424;SDS011;8830;50.978;5.058;2023-03-02T05:15:27;7.97;;;6.67;;
17424;SDS011;8830;50.978;5.058;2023-03-02T05:17:59;9.43;;;6.73;;
17424;SDS011;8830;50.978;5.058;2023-03-02T05:20:27;9.93;;;6.53;;
17424;SDS011;8830;50.978;5.058;2023-03-02T05:22:56;10.37;;;6.87;;
17424;SDS011;8830;50.978;5.058;2023-03-02T05:25:25;7.67;;;6.53;;
17424;SDS011;8830;50.978;5.058;2023-03-02T05:27:54;7.27;;;6.20;;
17424;SDS011;8830;50.978;5.058;2023-03-02T05:30:21;8.57;;;6.60;;
17424;SDS011;8830;50.978;5.058;2023-03-02T05:32:48;7.80;;;5.97;;
17424;SDS011;8830;50.978;5.058;2023-03-02T05:35:17;8.13;;;7.13;;
17424;SDS011;8830;50.978;5.058;2023-03-02T05:37:45;8.63;;;6.87;;
17424;SDS011;8830;50.978;5.058;2023-03-02T05:40:13;8.87;;;7.13;;
17424;SDS011;8830;50.978;5.058;2023-03-02T05:42:41;9.33;;;6.07;;
17424;SDS011;8830;50.978;5.058;2023-03-02T05:45:12;8.40;;;6.23;;
17424;SDS011;8830;50.978;5.058;2023-03-02T05:47:44;7.30;;;6.17;;
17424;SDS011;8830;50.978;5.058;2023-03-02T05:50:11;10.57;;;6.90;;
17424;SDS011;8830;50.978;5.058;2023-03-02T05:52:40;8.00;;;6.60;;
17424;SDS011;8830;50.978;5.058;2023-03-02T05:55:09;9.43;;;7.13;;
17424;SDS011;8830;50.978;5.058;2023-03-02T05:57:37;7.30;;;6.57;;
17424;SDS011;8830;50.978;5.058;2023-03-02T06:00:05;7.07;;;5.30;;
17424;SDS011;8830;50.978;5.058;2023-03-02T06:02:33;7.77;;;6.10;;
17424;SDS011;8830;50.978;5.058;2023-03-02T06:05:03;10.30;;;6.33;;
17424;SDS011;8830;50.978;5.058;2023-03-02T06:07:30;8.70;;;6.27;;
17424;SDS011;8830;50.978;5.058;2023-03-02T06:09:59;8.73;;;6.50;;
17424;SDS011;8830;50.978;5.058;2023-03-02T06:12:26;7.50;;;6.30;;
17424;SDS011;8830;50.978;5.058;2023-03-02T06:14:53;7.07;;;6.43;;
17424;SDS011;8830;50.978;5.058;2023-03-02T06:17:20;7.93;;;7.13;;
17424;SDS011;8830;50.978;5.058;2023-03-02T06:19:47;7.17;;;6.30;;
17424;SDS011;8830;50.978;5.058;2023-03-02T06:22:15;8.87;;;6.20;;
17424;SDS011;8830;50.978;5.058;2023-03-02T06:24:42;8.53;;;6.23;;
17424;SDS011;8830;50.978;5.058;2023-03-02T06:27:10;6.60;;;5.90;;
17424;SDS011;8830;50.978;5.058;2023-03-02T06:29:39;8.93;;;6.70;;
17424;SDS011;8830;50.978;5.058;2023-03-02T06:32:06;9.90;;;7.27;;
17424;SDS011;8830;50.978;5.058;2023-03-02T06:34:34;7.40;;;5.87;;
17424;SDS011;8830;50.978;5.058;2023-03-02T06:37:02;8.23;;;7.10;;
17424;SDS011;8830;50.978;5.058;2023-03-02T06:39:29;7.83;;;5.80;;
17424;SDS011;8830;50.978;5.058;2023-03-02T06:41:58;7.23;;;5.83;;
17424;SDS011;8830;50.978;5.058;2023-03-02T06:44:26;8.17;;;6.63;;
17424;SDS011;8830;50.978;5.058;2023-03-02T06:46:53;10.30;;;7.10;;
17424;SDS011;8830;50.978;5.058;2023-03-02T06:49:21;11.00;;;6.43;;
17424;SDS011;8830;50.978;5.058;2023-03-02T06:51:48;7.50;;;6.10;;
17424;SDS011;8830;50.978;5.058;2023-03-02T06:54:16;7.23;;;6.17;;
17424;SDS011;8830;50.978;5.058;2023-03-02T06:56:43;11.80;;;7.03;;
17424;SDS011;8830;50.978;5.058;2023-03-02T06:59:10;7.63;;;6.87;;
17424;SDS011;8830;50.978;5.058;2023-03-02T07:01:38;8.60;;;6.57;;
17424;SDS011;8830;50.978;5.058;2023-03-02T07:04:05;8.97;;;6.37;;
17424;SDS011;8830;50.978;5.058;2023-03-02T07:06:33;14.33;;;6.93;;
17424;SDS011;8830;50.978;5.058;2023-03-02T07:09:00;8.27;;;6.80;;
17424;SDS011;8830;50.978;5.058;2023-03-02T07:11:28;7.73;;;5.80;;
17424;SDS011;8830;50.978;5.058;2023-03-02T07:13:55;10.50;;;6.83;;
17424;SDS011;8830;50.978;5.058;2023-03-02T07:16:24;7.23;;;6.37;;
17424;SDS011;8830;50.978;5.058;2023-03-02T07:18:53;8.33;;;6.33;;
17424;SDS011;8830;50.978;5.058;2023-03-02T07:21:20;8.03;;;6.13;;
17424;SDS011;8830;50.978;5.058;2023-03-02T07:23:47;6.53;;;5.83;;
17424;SDS011;8830;50.978;5.058;2023-03-02T07:26:14;7.07;;;6.07;;
17424;SDS011;8830;50.978;5.058;2023-03-02T07:28:42;7.23;;;6.27;;
17424;SDS011;8830;50.978;5.058;2023-03-02T07:31:09;8.67;;;6.40;;
17424;SDS011;8830;50.978;5.058;2023-03-02T07:33:37;7.10;;;6.40;;
17424;SDS011;8830;50.978;5.058;2023-03-02T07:36:06;10.30;;;6.63;;
17424;SDS011;8830;50.978;5.058;2023-03-02T07:38:34;10.67;;;6.07;;
17424;SDS011;8830;50.978;5.058;2023-03-02T07:41:04;7.70;;;6.93;;
17424;SDS011;8830;50.978;5.058;2023-03-02T07:43:34;7.43;;;6.30;;
17424;SDS011;8830;50.978;5.058;2023-03-02T07:46:01;10.80;;;7.10;;
17424;SDS011;8830;50.978;5.058;2023-03-02T07:48:29;8.43;;;6.77;;
17424;SDS011;8830;50.978;5.058;2023-03-02T07:50:57;6.90;;;6.20;;
17424;SDS011;8830;50.978;5.058;2023-03-02T07:53:26;7.93;;;6.47;;
17424;SDS011;8830;50.978;5.058;2023-03-02T07:55:53;7.03;;;6.30;;
17424;SDS011;8830;50.978;5.058;2023-03-02T07:58:20;7.33;;;6.63;;
17424;SDS011;8830;50.978;5.058;2023-03-02T08:00:49;11.10;;;6.33;;
17424;SDS011;8830;50.978;5.058;2023-03-02T08:03:16;7.23;;;6.53;;
17424;SDS011;8830;50.978;5.058;2023-03-02T08:05:43;7.70;;;5.77;;
17424;SDS011;8830;50.978;5.058;2023-03-02T08:08:10;8.57;;;6.60;;
17424;SDS011;8830;50.978;5.058;2023-03-02T08:10:39;7.63;;;6.27;;
17424;SDS011;8830;50.978;5.058;2023-03-02T08:13:06;7.00;;;6.30;;
17424;SDS011;8830;50.978;5.058;2023-03-02T08:15:33;6.60;;;5.97;;
17424;SDS011;8830;50.978;5.058;2023-03-02T08:18:00;7.00;;;5.60;;
17424;SDS011;8830;50.978;5.058;2023-03-02T08:20:27;6.67;;;5.93;;
17424;SDS011;8830;50.978;5.058;2023-03-02T08:22:55;6.60;;;5.90;;
17424;SDS011;8830;50.978;5.058;2023-03-02T08:25:22;6.60;;;6.00;;
17424;SDS011;8830;50.978;5.058;2023-03-02T08:27:51;6.70;;;6.10;;
17424;SDS011;8830;50.978;5.058;2023-03-02T08:30:18;6.73;;;6.03;;
17424;SDS011;8830;50.978;5.058;2023-03-02T08:32:45;6.93;;;5.67;;
17424;SDS011;8830;50.978;5.058;2023-03-02T08:35:12;7.50;;;6.13;;
17424;SDS011;8830;50.978;5.058;2023-03-02T08:37:39;6.73;;;6.07;;
17424;SDS011;8830;50.978;5.058;2023-03-02T08:40:07;6.17;;;5.57;;
17424;SDS011;8830;50.978;5.058;2023-03-02T08:42:34;6.37;;;5.77;;
17424;SDS011;8830;50.978;5.058;2023-03-02T08:45:03;6.00;;;5.40;;
17424;SDS011;8830;50.978;5.058;2023-03-02T08:47:31;6.60;;;5.93;;
17424;SDS011;8830;50.978;5.058;2023-03-02T08:49:58;6.60;;;5.83;;
17424;SDS011;8830;50.978;5.058;2023-03-02T08:52:25;8.23;;;6.33;;
17424;SDS011;8830;50.978;5.058;2023-03-02T08:54:52;6.33;;;5.73;;
17424;SDS011;8830;50.978;5.058;2023-03-02T08:57:19;7.30;;;5.23;;
17424;SDS011;8830;50.978;5.058;2023-03-02T08:59:47;7.13;;;6.43;;
17424;SDS011;8830;50.978;5.058;2023-03-02T09:02:17;7.30;;;6.13;;
17424;SDS011;8830;50.978;5.058;2023-03-02T09:04:44;5.77;;;5.27;;
17424;SDS011;8830;50.978;5.058;2023-03-02T09:07:13;7.13;;;6.03;;
17424;SDS011;8830;50.978;5.058;2023-03-02T09:09:41;8.77;;;5.70;;
17424;SDS011;8830;50.978;5.058;2023-03-02T09:12:08;8.40;;;5.90;;
17424;SDS011;8830;50.978;5.058;2023-03-02T09:14:35;10.83;;;6.40;;
17424;SDS011;8830;50.978;5.058;2023-03-02T09:17:03;8.33;;;7.40;;
17424;SDS011;8830;50.978;5.058;2023-03-02T09:19:31;9.20;;;7.40;;
17424;SDS011;8830;50.978;5.058;2023-03-02T09:22:05;10.43;;;7.50;;
17424;SDS011;8830;50.978;5.058;2023-03-02T09:24:33;10.90;;;7.53;;
17424;SDS011;8830;50.978;5.058;2023-03-02T09:27:00;8.33;;;7.37;;
17424;SDS011;8830;50.978;5.058;2023-03-02T09:29:28;8.17;;;7.30;;
17424;SDS011;8830;50.978;5.058;2023-03-02T09:31:55;9.97;;;8.47;;
17424;SDS011;8830;50.978;5.058;2023-03-02T09:34:22;8.97;;;7.87;;
17424;SDS011;8830;50.978;5.058;2023-03-02T09:36:50;8.13;;;7.33;;
17424;SDS011;8830;50.978;5.058;2023-03-02T09:39:17;11.17;;;7.67;;
17424;SDS011;8830;50.978;5.058;2023-03-02T09:42:00;9.17;;;7.30;;
17424;SDS011;8830;50.978;5.058;2023-03-02T09:47:37;7.43;;;6.73;;
17424;SDS011;8830;50.978;5.058;2023-03-02T09:50:22;9.13;;;7.23;;
17424;SDS011;8830;50.978;5.058;2023-03-02T09:52:59;7.43;;;6.60;;
17424;SDS011;8830;50.978;5.058;2023-03-02T09:55:37;9.33;;;7.00;;
17424;SDS011;8830;50.978;5.058;2023-03-02T09:58:05;10.50;;;6.53;;
17424;SDS011;8830;50.978;5.058;2023-03-02T10:00:34;6.43;;;5.80;;
17424;SDS011;8830;50.978;5.058;2023-03-02T10:03:01;8.43;;;6.70;;
17424;SDS011;8830;50.978;5.058;2023-03-02T10:05:33;7.33;;;6.20;;
17424;SDS011;8830;50.978;5.058;2023-03-02T10:08:03;8.57;;;6.60;;
17424;SDS011;8830;50.978;5.058;2023-03-02T10:10:32;9.20;;;6.70;;
17424;SDS011;8830;50.978;5.058;2023-03-02T10:13:05;8.40;;;7.03;;
17424;SDS011;8830;50.978;5.058;2023-03-02T10:15:36;9.50;;;7.40;;
17424;SDS011;8830;50.978;5.058;2023-03-02T10:18:10;8.03;;;7.23;;
17424;SDS011;8830;50.978;5.058;2023-03-02T10:20:41;8.03;;;6.97;;
17424;SDS011;8830;50.978;5.058;2023-03-02T10:23:22;8.67;;;7.10;;
17424;SDS011;8830;50.978;5.058;2023-03-02T10:25:52;12.23;;;7.10;;
17424;SDS011;8830;50.978;5.058;2023-03-02T10:28:23;12.90;;;8.00;;
17424;SDS011;8830;50.978;5.058;2023-03-02T10:30:56;8.53;;;7.20;;
17424;SDS011;8830;50.978;5.058;2023-03-02T10:33:25;9.50;;;8.17;;
17424;SDS011;8830;50.978;5.058;2023-03-02T10:35:53;10.30;;;7.87;;
17424;SDS011;8830;50.978;5.058;2023-03-02T10:38:22;10.97;;;7.73;;
17424;SDS011;8830;50.978;5.058;2023-03-02T10:40:50;12.30;;;8.20;;
17424;SDS011;8830;50.978;5.058;2023-03-02T10:43:28;9.53;;;8.20;;
17424;SDS011;8830;50.978;5.058;2023-03-02T10:45:57;9.47;;;8.47;;
17424;SDS011;8830;50.978;5.058;2023-03-02T10:48:29;8.67;;;7.47;;
17424;SDS011;8830;50.978;5.058;2023-03-02T10:51:19;9.10;;;6.93;;
17424;SDS011;8830;50.978;5.058;2023-03-02T10:53:49;19.10;;;9.13;;
17424;SDS011;8830;50.978;5.058;2023-03-02T10:56:18;9.77;;;8.77;;
17424;SDS011;8830;50.978;5.058;2023-03-02T10:58:46;11.10;;;8.30;;
17424;SDS011;8830;50.978;5.058;2023-03-02T11:01:15;10.60;;;8.53;;
17424;SDS011;8830;50.978;5.058;2023-03-02T11:03:52;13.20;;;9.27;;
17424;SDS011;8830;50.978;5.058;2023-03-02T11:06:20;12.10;;;8.37;;
17424;SDS011;8830;50.978;5.058;2023-03-02T11:08:57;9.17;;;7.87;;
17424;SDS011;8830;50.978;5.058;2023-03-02T11:11:26;8.93;;;7.97;;
17424;SDS011;8830;50.978;5.058;2023-03-02T11:13:53;9.37;;;8.37;;
17424;SDS011;8830;50.978;5.058;2023-03-02T11:16:22;11.57;;;8.67;;
17424;SDS011;8830;50.978;5.058;2023-03-02T11:18:53;11.50;;;8.30;;
17424;SDS011;8830;50.978;5.058;2023-03-02T11:21:24;9.20;;;8.23;;
17424;SDS011;8830;50.978;5.058;2023-03-02T11:23:59;13.20;;;8.07;;
17424;SDS011;8830;50.978;5.058;2023-03-02T11:26:33;13.27;;;8.27;;
17424;SDS011;8830;50.978;5.058;2023-03-02T11:29:05;13.17;;;8.37;;
17424;SDS011;8830;50.978;5.058;2023-03-02T11:31:40;10.53;;;8.53;;
17424;SDS011;8830;50.978;5.058;2023-03-02T11:34:15;10.43;;;8.50;;
17424;SDS011;8830;50.978;5.058;2023-03-02T11:36:56;9.80;;;8.80;;
17424;SDS011;8830;50.978;5.058;2023-03-02T11:39:31;10.70;;;8.53;;
17424;SDS011;8830;50.978;5.058;2023-03-02T11:42:14;9.93;;;8.93;;
17424;SDS011;8830;50.978;5.058;2023-03-02T11:44:45;9.20;;;8.20;;
17424;SDS011;8830;50.978;5.058;2023-03-02T11:47:13;10.30;;;7.43;;
17424;SDS011;8830;50.978;5.058;2023-03-02T11:49:43;8.77;;;7.73;;
17424;SDS011;8830;50.978;5.058;2023-03-02T11:52:14;10.20;;;9.07;;
17424;SDS011;8830;50.978;5.058;2023-03-02T11:54:47;10.20;;;8.63;;
17424;SDS011;8830;50.978;5.058;2023-03-02T11:57:20;12.27;;;8.07;;
17424;SDS011;8830;50.978;5.058;2023-03-02T11:59:51;11.70;;;8.93;;
17424;SDS011;8830;50.978;5.058;2023-03-02T12:02:19;9.93;;;8.57;;
17424;SDS011;8830;50.978;5.058;2023-03-02T12:04:48;11.87;;;9.07;;
17424;SDS011;8830;50.978;5.058;2023-03-02T12:07:17;9.57;;;7.80;;
17424;SDS011;8830;50.978;5.058;2023-03-02T12:09:56;8.67;;;7.77;;
17424;SDS011;8830;50.978;5.058;2023-03-02T12:12:37;11.33;;;8.23;;
17424;SDS011;8830;50.978;5.058;2023-03-02T12:18:00;11.57;;;8.10;;
17424;SDS011;8830;50.978;5.058;2023-03-02T12:20:28;10.63;;;7.63;;
17424;SDS011;8830;50.978;5.058;2023-03-02T12:23:06;8.77;;;7.90;;
17424;SDS011;8830;50.978;5.058;2023-03-02T12:25:42;8.37;;;7.57;;
17424;SDS011;8830;50.978;5.058;2023-03-02T12:28:26;14.27;;;8.00;;
17424;SDS011;8830;50.978;5.058;2023-03-02T12:31:07;10.60;;;7.60;;
17424;SDS011;8830;50.978;5.058;2023-03-02T12:33:43;8.10;;;7.23;;
17424;SDS011;8830;50.978;5.058;2023-03-02T12:36:13;12.73;;;7.53;;
17424;SDS011;8830;50.978;5.058;2023-03-02T12:38:40;11.20;;;7.63;;
17424;SDS011;8830;50.978;5.058;2023-03-02T12:41:26;9.27;;;7.57;;
17424;SDS011;8830;50.978;5.058;2023-03-02T12:43:59;11.80;;;7.73;;
17424;SDS011;8830;50.978;5.058;2023-03-02T12:46:29;9.13;;;8.23;;
17424;SDS011;8830;50.978;5.058;2023-03-02T12:49:23;9.03;;;7.20;;
17424;SDS011;8830;50.978;5.058;2023-03-02T12:51:52;11.60;;;8.53;;
17424;SDS011;8830;50.978;5.058;2023-03-02T12:54:22;10.00;;;8.93;;
17424;SDS011;8830;50.978;5.058;2023-03-02T12:57:02;9.53;;;8.43;;
17424;SDS011;8830;50.978;5.058;2023-03-02T12:59:32;8.87;;;8.07;;
17424;SDS011;8830;50.978;5.058;2023-03-02T13:02:04;8.93;;;8.03;;
17424;SDS011;8830;50.978;5.058;2023-03-02T13:04:50;13.80;;;9.33;;
17424;SDS011;8830;50.978;5.058;2023-03-02T13:07:18;13.13;;;8.93;;
17424;SDS011;8830;50.978;5.058;2023-03-02T13:09:48;12.50;;;9.00;;
17424;SDS011;8830;50.978;5.058;2023-03-02T13:12:17;9.20;;;8.30;;
17424;SDS011;8830;50.978;5.058;2023-03-02T13:14:49;9.17;;;8.27;;
17424;SDS011;8830;50.978;5.058;2023-03-02T13:17:19;13.27;;;9.30;;
17424;SDS011;8830;50.978;5.058;2023-03-02T13:19:48;9.97;;;9.07;;
17424;SDS011;8830;50.978;5.058;2023-03-02T13:22:16;12.60;;;9.40;;
17424;SDS011;8830;50.978;5.058;2023-03-02T13:24:45;11.47;;;8.90;;
17424;SDS011;8830;50.978;5.058;2023-03-02T13:27:15;12.27;;;9.13;;
17424;SDS011;8830;50.978;5.058;2023-03-02T13:29:44;12.30;;;9.60;;
17424;SDS011;8830;50.978;5.058;2023-03-02T13:32:15;13.00;;;9.10;;
17424;SDS011;8830;50.978;5.058;2023-03-02T13:34:45;12.47;;;9.70;;
17424;SDS011;8830;50.978;5.058;2023-03-02T13:37:31;13.03;;;10.00;;
17424;SDS011;8830;50.978;5.058;2023-03-02T13:40:02;18.00;;;12.23;;
17424;SDS011;8830;50.978;5.058;2023-03-02T13:42:36;21.63;;;12.87;;
17424;SDS011;8830;50.978;5.058;2023-03-02T13:45:12;24.07;;;14.80;;
17424;SDS011;8830;50.978;5.058;2023-03-02T13:47:49;24.70;;;18.20;;
17424;SDS011;8830;50.978;5.058;2023-03-02T13:50:17;30.43;;;18.93;;
17424;SDS011;8830;50.978;5.058;2023-03-02T13:52:46;22.40;;;13.23;;
17424;SDS011;8830;50.978;5.058;2023-03-02T13:55:15;18.47;;;12.53;;
17424;SDS011;8830;50.978;5.058;2023-03-02T13:57:46;18.20;;;14.20;;
17424;SDS011;8830;50.978;5.058;2023-03-02T14:00:15;16.17;;;13.40;;
17424;SDS011;8830;50.978;5.058;2023-03-02T14:02:45;18.33;;;13.07;;
17424;SDS011;8830;50.978;5.058;2023-03-02T14:05:17;25.10;;;13.97;;
17424;SDS011;8830;50.978;5.058;2023-03-02T14:07:46;16.57;;;12.80;;
17424;SDS011;8830;50.978;5.058;2023-03-02T14:10:14;16.77;;;12.13;;
17424;SDS011;8830;50.978;5.058;2023-03-02T14:12:47;18.70;;;12.77;;
17424;SDS011;8830;50.978;5.058;2023-03-02T14:15:19;17.13;;;13.13;;
17424;SDS011;8830;50.978;5.058;2023-03-02T14:17:46;13.97;;;12.57;;
17424;SDS011;8830;50.978;5.058;2023-03-02T14:20:14;15.30;;;11.17;;
17424;SDS011;8830;50.978;5.058;2023-03-02T14:22:43;16.23;;;10.97;;
17424;SDS011;8830;50.978;5.058;2023-03-02T14:25:10;16.03;;;12.17;;
17424;SDS011;8830;50.978;5.058;2023-03-02T14:27:38;16.27;;;11.40;;
17424;SDS011;8830;50.978;5.058;2023-03-02T14:30:11;13.50;;;11.43;;
17424;SDS011;8830;50.978;5.058;2023-03-02T14:32:40;20.00;;;14.73;;
17424;SDS011;8830;50.978;5.058;2023-03-02T14:35:08;24.40;;;16.73;;
17424;SDS011;8830;50.978;5.058;2023-03-02T14:37:38;26.83;;;16.87;;
17424;SDS011;8830;50.978;5.058;2023-03-02T14:40:11;17.23;;;14.13;;
17424;SDS011;8830;50.978;5.058;2023-03-02T14:42:42;22.07;;;14.13;;
17424;SDS011;8830;50.978;5.058;2023-03-02T14:45:11;19.23;;;14.93;;
17424;SDS011;8830;50.978;5.058;2023-03-02T14:47:38;19.20;;;13.97;;
17424;SDS011;8830;50.978;5.058;2023-03-02T14:50:05;21.20;;;14.43;;
17424;SDS011;8830;50.978;5.058;2023-03-02T14:52:35;16.97;;;13.80;;
17424;SDS011;8830;50.978;5.058;2023-03-02T14:55:05;21.70;;;15.23;;
17424;SDS011;8830;50.978;5.058;2023-03-02T14:57:38;23.07;;;15.57;;
17424;SDS011;8830;50.978;5.058;2023-03-02T15:00:05;21.90;;;14.73;;
17424;SDS011;8830;50.978;5.058;2023-03-02T15:02:34;20.80;;;13.20;;
17424;SDS011;8830;50.978;5.058;2023-03-02T15:05:02;19.97;;;11.73;;
17424;SDS011;8830;50.978;5.058;2023-03-02T15:07:29;16.87;;;13.07;;
17424;SDS011;8830;50.978;5.058;2023-03-02T15:09:56;23.20;;;15.17;;
17424;SDS011;8830;50.978;5.058;2023-03-02T15:12:23;23.90;;;16.27;;
17424;SDS011;8830;50.978;5.058;2023-03-02T15:14:50;23.10;;;15.63;;